Main page
METAR-TAF:

METAR-TAF

Airports :

London City Airport

London, England

latitude: 51-30N, longitude: 000-03E, elevation: 5 m

Current weather observation

The report was made 32 minutes ago, at 11:50 UTC
Wind 1 kt from variable directions
Temperature 18°C
Humidity 73%
Pressure 1018 hPa
Visibility 10 km or more
Few clouds at a height of 1100 ft

METAR: EGLC 211150Z AUTO VRB01KT 9999 FEW011 18/13 Q1018

Time: 13:22 (12:22 UTC)

Forecast

The report was made 1 hour and 27 minutes ago, at 10:55 UTC
Forecast valid from 21 at 12 UTC to 21 at 21 UTC
Wind 3 kt from the North/Northeast
Visibility 10 km or more
Few clouds at a height of 700 ft
Probability 30% :
Temporary
from 21 at 12 UTC to 21 at 13 UTC
Broken clouds at a height of 700 ft

TAF: EGLC 211055Z 2112/2121 02003KT 9999 FEW007 PROB30 TEMPO 2112/2113 BKN007

Weather observations and forecasts of more than 4000 airports (METAR and TAF reports).

The available stations are represented by yellow and red dots on the map.

Hover mouse over dot to see the name of the station.

Then click to see weather observations and forecasts.

To change the map : click on the green buttons with a black cross to zoom in, on the green button with a dash to zoom out, or on the green arrows for adjacent maps.


METAR-TAF: